Time;durP1;ratioP1;P1;durP2;ratioP2;P2;SDS_P1;SDS_P2;PMS_P1;PMS_P2;Temp;Humidity;BMP_temperature;BMP_pressure;BME280_temperature;BME280_humidity;BME280_pressure;Samples;Min_cycle;Max_cycle;Signal;HPM_P1;HPM_P2
2022/10/30 00:00:33;;;;;;;20.20;11.07;;;14.90;44.20;;;;;;7362371;19;20018;-68
2022/10/30 00:03:06;;;;;;;23.10;10.63;;;14.80;44.40;;;;;;7363814;19;20010;-67
2022/10/30 00:05:35;;;;;;;21.05;11.52;;;14.80;45.30;;;;;;7363691;19;20060;-65
2022/10/30 00:08:05;;;;;;;24.45;11.32;;;14.80;44.80;;;;;;7361133;19;20131;-65
2022/10/30 00:10:36;;;;;;;20.52;10.68;;;14.70;45.10;;;;;;7362081;19;20029;-66
2022/10/30 00:13:06;;;;;;;25.33;10.85;;;14.70;44.70;;;;;;7384888;19;20021;-65
2022/10/30 00:15:36;;;;;;;20.83;10.73;;;14.70;44.70;;;;;;7362129;19;20014;-65
2022/10/30 00:18:08;;;;;;;17.08;10.20;;;14.70;45.10;;;;;;7361111;19;20014;-66
2022/10/30 00:20:38;;;;;;;19.50;12.00;;;14.60;45.40;;;;;;7362633;19;20489;-65
2022/10/30 00:23:08;;;;;;;17.20;10.65;;;14.60;45.40;;;;;;7362765;19;20423;-65
2022/10/30 00:25:38;;;;;;;18.27;10.43;;;14.60;45.40;;;;;;7364944;19;20582;-65
2022/10/30 00:28:09;;;;;;;17.00;11.55;;;14.60;46.20;;;;;;7380387;19;20046;-65
2022/10/30 00:30:39;;;;;;;17.77;10.68;;;14.60;46.70;;;;;;7361436;19;20010;-66
2022/10/30 00:33:11;;;;;;;25.05;11.05;;;14.60;47.00;;;;;;7362970;19;20007;-65
2022/10/30 00:35:48;;;;;;;21.65;10.68;;;14.60;46.40;;;;;;7361113;19;20010;-65
2022/10/30 00:38:18;;;;;;;18.20;10.82;;;14.50;46.40;;;;;;7362426;19;20014;-65
2022/10/30 00:40:48;;;;;;;21.88;11.40;;;14.50;45.70;;;;;;7362081;19;20486;-65
2022/10/30 00:43:30;;;;;;;23.20;11.52;;;14.40;45.70;;;;;;7381975;19;20018;-71
2022/10/30 00:46:04;;;;;;;19.05;9.55;;;14.40;46.70;;;;;;7386955;19;20470;-65
2022/10/30 00:48:37;;;;;;;19.35;8.45;;;14.40;47.10;;;;;;7361374;19;20022;-65
2022/10/30 00:51:11;;;;;;;18.15;10.00;;;14.30;45.30;;;;;;7361157;19;20014;-65
2022/10/30 00:53:41;;;;;;;17.77;9.43;;;14.20;45.30;;;;;;7362824;19;20023;-67
2022/10/30 00:56:13;;;;;;;12.73;8.77;;;14.20;45.50;;;;;;7361792;19;20097;-67
2022/10/30 00:58:48;;;;;;;16.08;9.10;;;14.20;45.80;;;;;;7361740;19;20038;-65
2022/10/30 01:01:21;;;;;;;20.88;10.32;;;14.20;45.90;;;;;;7382815;19;20020;-65
2022/10/30 01:03:57;;;;;;;17.45;9.25;;;14.20;46.50;;;;;;7385279;19;20031;-65
2022/10/30 01:06:28;;;;;;;20.15;9.60;;;14.10;46.50;;;;;;7384150;19;20493;-65
2022/10/30 01:08:58;;;;;;;17.77;9.38;;;14.10;45.90;;;;;;7384112;19;20095;-65
2022/10/30 01:11:29;;;;;;;16.88;9.55;;;14.00;46.30;;;;;;7383823;19;20015;-65
2022/10/30 01:14:02;;;;;;;18.85;9.93;;;14.00;47.40;;;;;;7384782;19;20129;-65
2022/10/30 01:16:49;;;;;;;19.25;9.65;;;14.00;47.30;;;;;;7383277;19;20404;-65
2022/10/30 01:19:28;;;;;;;18.00;10.07;;;14.00;47.40;;;;;;7384311;19;20010;-65
2022/10/30 01:22:16;;;;;;;19.33;10.38;;;14.00;47.20;;;;;;7384597;19;20014;-67
2022/10/30 01:24:55;;;;;;;21.73;11.07;;;14.10;47.70;;;;;;7383498;19;20011;-65
2022/10/30 01:27:37;;;;;;;19.70;10.43;;;14.10;48.00;;;;;;7385548;19;20022;-65
2022/10/30 01:30:17;;;;;;;21.52;10.45;;;14.20;47.30;;;;;;7382696;19;20010;-65
2022/10/30 01:33:01;;;;;;;17.42;9.73;;;14.30;45.10;;;;;;7384106;19;20022;-65
2022/10/30 01:35:39;;;;;;;18.77;9.27;;;14.30;44.90;;;;;;7383596;19;20030;-65
2022/10/30 01:38:15;;;;;;;18.35;9.65;;;14.40;42.50;;;;;;7383440;19;20022;-65
2022/10/30 01:40:45;;;;;;;19.00;8.48;;;14.40;40.50;;;;;;7384160;19;20029;-66
2022/10/30 01:43:15;;;;;;;17.35;8.02;;;14.50;38.60;;;;;;7396090;19;20021;-67
2022/10/30 01:46:01;;;;;;;19.38;8.60;;;14.50;37.00;;;;;;7390462;19;20041;-67
2022/10/30 01:48:57;;;;;;;20.17;8.48;;;14.50;36.70;;;;;;7390162;19;20367;-67
2022/10/30 01:51:42;;;;;;;15.50;7.22;;;14.60;33.50;;;;;;7390745;19;20034;-67
2022/10/30 01:54:21;;;;;;;14.20;6.95;;;14.70;32.50;;;;;;7391184;19;20035;-67
2022/10/30 01:57:03;;;;;;;14.75;7.90;;;14.70;31.90;;;;;;7388598;19;20025;-66
2022/10/30 01:59:38;;;;;;;17.83;7.60;;;14.80;30.10;;;;;;7390327;19;20018;-67
2022/10/30 02:02:09;;;;;;;16.77;7.32;;;14.80;28.90;;;;;;7368413;19;20010;-67
2022/10/30 02:04:39;;;;;;;17.70;7.68;;;14.80;29.20;;;;;;7368694;19;20043;-67
2022/10/30 02:07:12;;;;;;;16.85;8.27;;;14.80;29.30;;;;;;7386527;19;20019;-67
2022/10/30 02:09:42;;;;;;;15.23;7.97;;;14.80;29.70;;;;;;7365632;19;20493;-67
2022/10/30 02:12:12;;;;;;;19.30;9.18;;;14.80;29.00;;;;;;7367285;19;20015;-67
2022/10/30 02:14:46;;;;;;;23.52;9.52;;;14.80;29.90;;;;;;7366791;19;20011;-67
2022/10/30 02:17:16;;;;;;;14.00;8.23;;;14.80;29.70;;;;;;7365540;19;20014;-67
2022/10/30 02:19:46;;;;;;;16.20;8.57;;;14.80;29.20;;;;;;7367217;19;20014;-67
2022/10/30 02:22:19;;;;;;;16.95;8.07;;;14.80;29.20;;;;;;7388913;19;20015;-67
2022/10/30 02:24:49;;;;;;;20.23;9.60;;;14.80;29.50;;;;;;7367840;19;20074;-67
2022/10/30 02:27:18;;;;;;;18.83;9.45;;;14.70;31.00;;;;;;7367514;19;20458;-67
2022/10/30 02:29:48;;;;;;;16.85;8.88;;;14.70;31.40;;;;;;7366078;19;20831;-67
2022/10/30 02:32:18;;;;;;;13.93;8.43;;;14.70;31.00;;;;;;7367190;19;20482;-67
2022/10/30 02:34:47;;;;;;;17.67;8.35;;;14.70;30.70;;;;;;7367225;19;20500;-67
2022/10/30 02:37:20;;;;;;;15.98;8.57;;;14.60;30.50;;;;;;7387813;19;20010;-67
2022/10/30 02:39:50;;;;;;;18.65;7.60;;;14.60;31.00;;;;;;7369827;19;20022;-68
2022/10/30 02:42:22;;;;;;;22.85;7.63;;;14.50;30.80;;;;;;7368954;19;20035;-67
2022/10/30 02:44:51;;;;;;;14.85;8.20;;;14.50;30.10;;;;;;7366629;19;20011;-67
2022/10/30 02:47:21;;;;;;;16.85;7.95;;;14.50;30.60;;;;;;7365259;19;20014;-67
2022/10/30 02:49:51;;;;;;;18.45;8.55;;;14.50;31.60;;;;;;7366061;19;20075;-67
2022/10/30 02:52:23;;;;;;;18.05;7.95;;;14.40;31.10;;;;;;7365227;19;20011;-67
2022/10/30 02:54:53;;;;;;;20.27;8.02;;;14.40;32.30;;;;;;7387952;19;20486;-67
2022/10/30 02:57:23;;;;;;;15.82;8.45;;;14.30;32.50;;;;;;7362797;19;20040;-67
2022/10/30 02:59:52;;;;;;;18.10;9.13;;;14.30;32.80;;;;;;7365633;19;20038;-67
2022/10/30 03:02:22;;;;;;;17.85;8.25;;;14.30;33.00;;;;;;7366552;19;20071;-67
2022/10/30 03:04:52;;;;;;;20.23;7.97;;;14.20;32.10;;;;;;7366219;19;20011;-67
2022/10/30 03:07:24;;;;;;;19.65;7.80;;;14.30;31.80;;;;;;7362744;19;20022;-67
2022/10/30 03:09:54;;;;;;;16.48;8.60;;;14.30;31.60;;;;;;7386065;19;20018;-67
2022/10/30 03:12:24;;;;;;;17.77;8.65;;;14.20;32.10;;;;;;7365047;19;20046;-67
2022/10/30 03:14:54;;;;;;;17.75;8.15;;;14.20;32.10;;;;;;7365939;19;20025;-67
2022/10/30 03:17:24;;;;;;;14.07;8.15;;;14.20;31.20;;;;;;7364088;19;20015;-67
2022/10/30 03:19:54;;;;;;;16.95;8.52;;;14.20;31.20;;;;;;7364969;19;20370;-67
2022/10/30 03:22:26;;;;;;;17.00;8.15;;;14.10;32.00;;;;;;7364699;19;20482;-68
2022/10/30 03:24:56;;;;;;;15.30;8.45;;;14.00;32.40;;;;;;7388212;19;20034;-67
2022/10/30 03:27:25;;;;;;;13.57;8.35;;;14.00;32.10;;;;;;7365713;19;20011;-67
2022/10/30 03:29:55;;;;;;;12.25;7.88;;;14.00;32.90;;;;;;7364514;19;20018;-67
2022/10/30 03:32:25;;;;;;;17.13;8.90;;;14.00;32.90;;;;;;7365146;19;20006;-67
2022/10/30 03:34:55;;;;;;;18.40;8.50;;;13.90;32.80;;;;;;7367555;19;20014;-67
2022/10/30 03:37:27;;;;;;;15.48;7.68;;;13.80;34.00;;;;;;7363162;19;20027;-68
2022/10/30 03:39:57;;;;;;;16.60;8.85;;;13.70;34.80;;;;;;7385828;19;20042;-67
2022/10/30 03:42:26;;;;;;;17.35;8.23;;;13.70;36.00;;;;;;7367340;19;20042;-67
2022/10/30 03:44:56;;;;;;;16.65;8.43;;;13.60;36.00;;;;;;7365035;19;20340;-67
2022/10/30 03:47:26;;;;;;;21.70;8.82;;;13.60;36.70;;;;;;7363153;19;20038;-67
2022/10/30 03:49:56;;;;;;;15.52;8.50;;;13.60;37.40;;;;;;7364371;19;20025;-65
2022/10/30 03:52:29;;;;;;;20.77;8.77;;;13.60;37.80;;;;;;7362940;19;20391;-65
2022/10/30 03:54:58;;;;;;;23.40;9.13;;;13.60;37.10;;;;;;7386124;19;20052;-67
2022/10/30 03:57:28;;;;;;;17.98;8.88;;;13.50;37.30;;;;;;7361283;19;20497;-65
2022/10/30 03:59:58;;;;;;;21.00;8.93;;;13.50;37.00;;;;;;7363823;19;20029;-67
2022/10/30 04:02:27;;;;;;;17.05;9.02;;;13.60;35.90;;;;;;7364629;19;20426;-67
2022/10/30 04:04:57;;;;;;;17.85;8.00;;;13.60;35.00;;;;;;7362772;19;20492;-65
2022/10/30 04:07:29;;;;;;;13.90;8.20;;;13.60;34.10;;;;;;7362371;19;20038;-65
2022/10/30 04:09:59;;;;;;;15.85;8.27;;;13.50;34.00;;;;;;7384900;19;20010;-63
2022/10/30 04:12:29;;;;;;;18.83;8.80;;;13.50;34.40;;;;;;7363313;19;20382;-65
2022/10/30 04:14:59;;;;;;;19.48;7.90;;;13.60;34.40;;;;;;7364063;19;20014;-65
2022/10/30 04:17:28;;;;;;;19.33;7.78;;;13.60;32.80;;;;;;7362939;19;20015;-64
2022/10/30 04:19:58;;;;;;;16.00;8.15;;;13.60;32.60;;;;;;7363201;19;20018;-65
2022/10/30 04:22:30;;;;;;;18.83;7.60;;;13.50;32.50;;;;;;7363773;19;20019;-65
2022/10/30 04:25:00;;;;;;;17.95;7.72;;;13.50;32.80;;;;;;7385440;19;20011;-65
2022/10/30 04:27:30;;;;;;;21.95;8.85;;;13.50;32.30;;;;;;7364623;19;20034;-64
2022/10/30 04:30:00;;;;;;;20.23;8.68;;;13.60;31.60;;;;;;7363999;19;20014;-65
2022/10/30 04:32:29;;;;;;;15.90;7.50;;;13.50;31.10;;;;;;7363270;19;20461;-65
2022/10/30 04:34:59;;;;;;;17.17;8.13;;;13.50;31.80;;;;;;7362980;19;20026;-65
2022/10/30 04:37:32;;;;;;;17.67;7.70;;;13.60;31.70;;;;;;7360672;19;20026;-65
2022/10/30 04:40:01;;;;;;;15.77;8.07;;;13.50;31.40;;;;;;7383266;19;20018;-66
2022/10/30 04:42:31;;;;;;;16.50;8.15;;;13.40;31.50;;;;;;7365682;19;20013;-65
2022/10/30 04:45:01;;;;;;;13.95;7.70;;;13.40;31.50;;;;;;7362870;19;20010;-65
2022/10/30 04:47:33;;;;;;;15.38;8.07;;;13.40;32.40;;;;;;7361163;19;20010;-65
2022/10/30 04:50:03;;;;;;;19.65;8.10;;;13.40;31.50;;;;;;7361694;19;20019;-65
2022/10/30 04:52:36;;;;;;;15.07;7.93;;;13.40;31.40;;;;;;7361654;19;20042;-65
2022/10/30 04:55:07;;;;;;;16.50;7.63;;;13.40;31.40;;;;;;7383773;19;20014;-65
2022/10/30 04:57:37;;;;;;;15.98;7.90;;;13.50;31.20;;;;;;7359711;19;20031;-65
2022/10/30 05:00:08;;;;;;;13.82;7.95;;;13.40;31.30;;;;;;7361097;19;20038;-65
2022/10/30 05:02:38;;;;;;;18.33;8.07;;;13.40;30.90;;;;;;7362118;19;20021;-67
2022/10/30 05:05:09;;;;;;;16.50;7.75;;;13.50;30.50;;;;;;7362319;19;20014;-66
2022/10/30 05:07:41;;;;;;;17.38;8.05;;;13.50;30.20;;;;;;7360302;19;20008;-67
2022/10/30 05:10:15;;;;;;;13.25;7.28;;;13.40;30.10;;;;;;7382816;19;20021;-67
2022/10/30 05:12:46;;;;;;;15.98;8.15;;;13.40;30.10;;;;;;7360301;19;20038;-66
2022/10/30 05:15:17;;;;;;;17.17;7.25;;;13.30;30.40;;;;;;7360704;19;20014;-67
2022/10/30 05:17:46;;;;;;;18.88;7.60;;;13.40;30.50;;;;;;7360673;19;20491;-65
2022/10/30 05:20:16;;;;;;;16.58;7.28;;;13.30;30.10;;;;;;7361556;19;20388;-68
2022/10/30 05:22:55;;;;;;;17.05;7.80;;;13.30;30.40;;;;;;7361985;19;20014;-65
2022/10/30 05:25:25;;;;;;;13.23;7.28;;;13.30;31.30;;;;;;7361142;19;20014;-66
2022/10/30 05:27:59;;;;;;;17.27;8.15;;;13.20;31.30;;;;;;7384269;19;20022;-65
2022/10/30 05:30:31;;;;;;;13.07;7.15;;;13.20;31.70;;;;;;7360449;19;20027;-66
2022/10/30 05:33:00;;;;;;;17.98;8.73;;;13.10;32.60;;;;;;7361159;19;20010;-66
2022/10/30 05:35:31;;;;;;;14.82;7.45;;;13.10;32.10;;;;;;7361061;19;20522;-66
2022/10/30 05:38:06;;;;;;;20.25;7.80;;;13.10;32.30;;;;;;7360364;19;20057;-66
2022/10/30 05:40:36;;;;;;;;;;;13.00;33.10;;;;;;7361611;19;20018;-66
2022/10/30 05:43:06;;;;;;;15.80;7.30;;;13.00;33.60;;;;;;7387740;19;20246;-66
2022/10/30 05:45:39;;;;;;;13.35;6.82;;;13.00;34.20;;;;;;7360092;19;20014;-65
2022/10/30 05:48:09;;;;;;;14.27;7.78;;;13.00;32.90;;;;;;7359528;19;20502;-66
2022/10/30 05:50:39;;;;;;;23.45;7.45;;;13.00;32.40;;;;;;7360124;19;20071;-66
2022/10/30 05:53:12;;;;;;;18.60;7.47;;;13.00;31.50;;;;;;7360979;19;20018;-66
2022/10/30 05:55:42;;;;;;;19.08;7.60;;;13.00;31.60;;;;;;7363872;19;20026;-66
2022/10/30 05:58:12;;;;;;;14.38;7.20;;;13.00;31.50;;;;;;7383682;19;20011;-66
2022/10/30 06:00:43;;;;;;;21.35;7.38;;;13.00;31.10;;;;;;7362631;19;20015;-66
2022/10/30 06:03:14;;;;;;;16.67;6.63;;;13.00;30.80;;;;;;7363022;19;20052;-66
2022/10/30 06:05:47;;;;;;;17.80;7.13;;;13.00;30.70;;;;;;7359585;19;20018;-66
2022/10/30 06:08:19;;;;;;;12.82;6.90;;;13.00;30.70;;;;;;7362211;19;20123;-66
2022/10/30 06:10:49;;;;;;;12.63;6.95;;;13.00;30.50;;;;;;7362319;19;20046;-66
2022/10/30 06:13:19;;;;;;;14.98;7.07;;;13.00;29.80;;;;;;7370858;19;20010;-67
2022/10/30 06:15:49;;;;;;;19.60;6.60;;;13.00;29.40;;;;;;7381076;19;20014;-66
2022/10/30 06:18:18;;;;;;;18.95;6.55;;;13.10;28.90;;;;;;7358712;19;20478;-66
2022/10/30 06:20:48;;;;;;;12.82;6.30;;;13.00;29.20;;;;;;7359530;19;20565;-66
2022/10/30 06:23:20;;;;;;;13.85;6.78;;;13.00;29.80;;;;;;7362729;19;20010;-66
2022/10/30 06:25:50;;;;;;;15.90;6.25;;;13.00;29.80;;;;;;7361596;19;20806;-66
2022/10/30 06:28:20;;;;;;;14.68;6.68;;;13.00;29.00;;;;;;7365868;19;20038;-68
2022/10/30 06:30:50;;;;;;;14.13;6.72;;;13.10;28.10;;;;;;7388595;19;20014;-66
2022/10/30 06:33:19;;;;;;;18.80;7.07;;;13.10;27.90;;;;;;7367981;19;20007;-66
2022/10/30 06:35:50;;;;;;;17.88;7.15;;;13.10;27.60;;;;;;7368948;19;20097;-66
2022/10/30 06:38:22;;;;;;;14.48;6.78;;;13.10;27.60;;;;;;7368568;19;20015;-66
2022/10/30 06:40:52;;;;;;;16.70;6.65;;;13.20;26.30;;;;;;7368616;19;20061;-66
2022/10/30 06:43:22;;;;;;;17.00;6.43;;;13.30;26.50;;;;;;7370759;19;20644;-66
2022/10/30 06:45:52;;;;;;;17.00;6.63;;;13.30;26.00;;;;;;7387557;19;20050;-68
2022/10/30 06:48:22;;;;;;;15.43;6.20;;;13.50;23.60;;;;;;7365834;19;20018;-66
2022/10/30 06:50:55;;;;;;;12.65;6.03;;;13.50;22.40;;;;;;7365518;19;20018;-66
2022/10/30 06:53:28;;;;;;;16.80;6.35;;;13.70;20.10;;;;;;7366085;19;20486;-66
2022/10/30 06:55:58;;;;;;;11.38;6.30;;;13.70;19.80;;;;;;7365823;19;20022;-66
2022/10/30 06:58:28;;;;;;;13.98;6.32;;;13.80;18.90;;;;;;7365509;19;20033;-66
2022/10/30 07:01:01;;;;;;;13.38;6.40;;;13.80;18.70;;;;;;7387224;19;20006;-65
2022/10/30 07:03:31;;;;;;;15.13;6.22;;;14.00;16.90;;;;;;7365564;19;20050;-66
2022/10/30 07:06:00;;;;;;;18.17;6.32;;;14.10;16.80;;;;;;7364780;19;20010;-66
2022/10/30 07:08:33;;;;;;;14.18;5.53;;;14.10;15.40;;;;;;7364026;19;20054;-66
2022/10/30 07:11:03;;;;;;;15.30;5.97;;;14.10;14.50;;;;;;7365232;19;20038;-66
2022/10/30 07:13:33;;;;;;;14.77;6.15;;;14.10;14.50;;;;;;7364619;19;20474;-66
2022/10/30 07:16:02;;;;;;;16.48;5.57;;;14.20;14.80;;;;;;7386236;19;20513;-66
2022/10/30 07:18:35;;;;;;;12.05;5.88;;;14.20;13.70;;;;;;7365453;19;20015;-66
2022/10/30 07:21:05;;;;;;;15.75;7.07;;;14.30;12.60;;;;;;7367373;19;20502;-68
2022/10/30 07:23:37;;;;;;;11.52;5.82;;;14.40;12.50;;;;;;7364960;19;20497;-68
2022/10/30 07:26:07;;;;;;;11.43;5.60;;;14.40;12.00;;;;;;7367617;19;20014;-67
2022/10/30 07:28:37;;;;;;;14.90;6.00;;;14.50;11.00;;;;;;7366581;19;20438;-68
2022/10/30 07:31:07;;;;;;;12.18;5.70;;;14.50;12.10;;;;;;7385747;19;20038;-67
2022/10/30 07:33:36;;;;;;;16.33;6.45;;;14.60;12.00;;;;;;7365927;19;20482;-67
2022/10/30 07:36:07;;;;;;;16.83;5.65;;;14.50;10.90;;;;;;7366833;19;20014;-67
2022/10/30 07:38:40;;;;;;;9.38;5.40;;;14.60;10.00;;;;;;7364463;19;20794;-66
2022/10/30 07:41:09;;;;;;;11.65;5.20;;;14.70;10.30;;;;;;7365202;19;20015;-66
2022/10/30 07:43:39;;;;;;;12.60;5.43;;;14.80;8.50;;;;;;7364838;19;20007;-66
2022/10/30 07:46:09;;;;;;;12.68;5.50;;;14.90;7.40;;;;;;7384628;19;20037;-66
2022/10/30 07:48:39;;;;;;;13.77;5.18;;;14.80;7.40;;;;;;7363238;19;20026;-67
2022/10/30 07:51:09;;;;;;;15.15;5.75;;;15.00;6.70;;;;;;7362614;19;20017;-68
2022/10/30 07:53:41;;;;;;;10.75;5.15;;;15.10;3.80;;;;;;7362684;19;20018;-68
2022/10/30 07:56:11;;;;;;;15.02;6.28;;;15.20;3.90;;;;;;7363519;19;20482;-67
2022/10/30 07:58:41;;;;;;;18.15;6.00;;;15.30;4.10;;;;;;7363615;19;20364;-68
2022/10/30 08:01:14;;;;;;;14.27;5.38;;;15.40;4.30;;;;;;7388907;19;20369;-68
2022/10/30 08:03:44;;;;;;;10.48;5.65;;;15.50;4.00;;;;;;7363488;19;20018;-67
2022/10/30 08:06:14;;;;;;;11.35;5.47;;;15.60;3.60;;;;;;7361988;19;20011;-65
2022/10/30 08:08:46;;;;;;;14.35;5.55;;;15.70;1.90;;;;;;7362704;19;20034;-66
2022/10/30 08:11:16;;;;;;;12.75;5.65;;;15.70;2.30;;;;;;7363382;19;20382;-66
2022/10/30 08:13:45;;;;;;;12.73;5.15;;;15.80;1.00;;;;;;7362235;19;20407;-66
2022/10/30 08:16:17;;;;;;;13.43;5.35;;;15.80;1.50;;;;;;7385817;19;20470;-66
2022/10/30 08:18:46;;;;;;;13.82;5.68;;;15.80;1.00;;;;;;7361185;19;20018;-67
2022/10/30 08:21:16;;;;;;;12.90;5.53;;;15.80;1.00;;;;;;7361871;19;20015;-66
2022/10/30 08:23:50;;;;;;;16.58;5.75;;;15.90;1.00;;;;;;7362099;19;20010;-66
2022/10/30 08:26:20;;;;;;;13.13;5.40;;;16.00;1.00;;;;;;7364886;19;20015;-67
2022/10/30 08:28:49;;;;;;;14.98;5.85;;;16.00;1.00;;;;;;7361991;19;20494;-67
2022/10/30 08:31:19;;;;;;;13.20;5.38;;;16.10;1.00;;;;;;7370028;19;20041;-68
2022/10/30 08:33:49;;;;;;;11.40;4.82;;;16.30;1.00;;;;;;7383757;19;20021;-67
2022/10/30 08:36:18;;;;;;;16.83;5.18;;;16.40;1.00;;;;;;7361686;19;20022;-67
2022/10/30 08:38:51;;;;;;;12.02;5.78;;;16.40;1.00;;;;;;7362719;19;20529;-67
2022/10/30 08:41:21;;;;;;;11.18;5.10;;;16.60;1.00;;;;;;7363045;19;20366;-67
2022/10/30 08:43:50;;;;;;;18.17;5.43;;;16.70;1.00;;;;;;7362663;19;20018;-67
2022/10/30 08:46:20;;;;;;;12.95;5.10;;;16.70;1.00;;;;;;7361529;19;20015;-67
2022/10/30 08:48:50;;;;;;;12.50;5.05;;;16.80;1.00;;;;;;7383140;19;20034;-67
2022/10/30 08:51:20;;;;;;;15.23;5.40;;;16.90;1.00;;;;;;7360924;19;20007;-67
2022/10/30 08:53:52;;;;;;;14.52;5.32;;;16.90;1.00;;;;;;7361552;19;20015;-67
2022/10/30 08:56:22;;;;;;;13.00;5.22;;;17.00;1.00;;;;;;7361378;19;20021;-67
2022/10/30 08:58:52;;;;;;;10.88;5.47;;;17.10;1.00;;;;;;7361750;19;20018;-67
2022/10/30 09:01:22;;;;;;;11.20;4.85;;;17.20;1.00;;;;;;7361192;19;20510;-67
2022/10/30 09:03:52;;;;;;;11.52;4.72;;;17.20;1.00;;;;;;7383495;19;20088;-67
2022/10/30 09:06:21;;;;;;;13.15;4.88;;;17.30;1.00;;;;;;7360659;19;20029;-67
2022/10/30 09:08:54;;;;;;;20.08;5.38;;;17.40;1.00;;;;;;7360287;19;20857;-67
2022/10/30 09:11:23;;;;;;;14.18;5.10;;;17.40;1.00;;;;;;7362860;19;20399;-67
2022/10/30 09:13:53;;;;;;;18.90;5.25;;;17.50;1.00;;;;;;7364390;19;20019;-67
2022/10/30 09:16:23;;;;;;;8.35;4.78;;;17.60;1.00;;;;;;7360829;19;20042;-67
2022/10/30 09:18:53;;;;;;;12.63;4.65;;;17.70;1.00;;;;;;7381679;19;20494;-67
2022/10/30 09:21:23;;;;;;;12.43;4.88;;;17.80;1.00;;;;;;7360584;19;20473;-64
2022/10/30 09:23:55;;;;;;;13.10;4.63;;;17.90;1.00;;;;;;7361969;19;20014;-66
2022/10/30 09:26:25;;;;;;;10.32;4.45;;;18.00;1.00;;;;;;7364407;19;20029;-66
2022/10/30 09:28:55;;;;;;;12.75;4.88;;;18.10;1.00;;;;;;7361230;19;20025;-66
2022/10/30 09:31:24;;;;;;;9.68;4.78;;;18.10;1.00;;;;;;7360766;19;20029;-66
2022/10/30 09:33:54;;;;;;;16.65;4.95;;;18.20;1.00;;;;;;7381029;19;20510;-66
2022/10/30 09:36:24;;;;;;;11.48;4.13;;;18.30;1.00;;;;;;7359635;19;20372;-66
2022/10/30 09:38:57;;;;;;;13.98;4.30;;;18.40;1.00;;;;;;7356989;19;20018;-66
2022/10/30 09:41:42;;;;;;;11.77;4.47;;;18.40;1.00;;;;;;7352262;19;20025;-67
2022/10/30 09:44:30;;;;;;;15.60;3.97;;;18.60;1.00;;;;;;7350787;19;20014;-67
2022/10/30 09:47:10;;;;;;;10.93;4.00;;;18.70;1.00;;;;;;7348694;19;20018;-66
2022/10/30 09:49:54;;;;;;;10.63;3.92;;;18.70;1.00;;;;;;7349305;19;20449;-67
2022/10/30 09:52:30;;;;;;;9.82;4.10;;;18.80;1.00;;;;;;7350575;19;20592;-67
2022/10/30 09:55:25;;;;;;;11.75;4.22;;;19.00;1.00;;;;;;7371036;19;20015;-67
2022/10/30 09:58:04;;;;;;;10.85;4.05;;;19.10;1.00;;;;;;7346803;19;20021;-64
2022/10/30 10:00:39;;;;;;;10.48;3.58;;;19.10;1.00;;;;;;7351905;19;20498;-65
2022/10/30 10:03:21;;;;;;;8.93;4.45;;;19.30;1.00;;;;;;7357649;19;20525;-65
2022/10/30 10:05:55;;;;;;;11.07;4.00;;;19.30;1.00;;;;;;7359302;19;20126;-65
2022/10/30 10:08:29;;;;;;;10.90;3.88;;;19.40;1.00;;;;;;7357951;19;20014;-65
2022/10/30 10:11:05;;;;;;;9.75;3.97;;;19.50;1.00;;;;;;7359562;19;20018;-65
2022/10/30 10:13:42;;;;;;;15.27;4.43;;;19.60;1.00;;;;;;7357476;19;20022;-66
2022/10/30 10:16:18;;;;;;;14.05;4.25;;;19.60;1.00;;;;;;7379159;19;20014;-66
2022/10/30 10:18:53;;;;;;;11.48;3.58;;;19.70;1.00;;;;;;7356709;19;20006;-66
2022/10/30 10:21:27;;;;;;;8.48;3.63;;;19.80;1.00;;;;;;7357527;19;20015;-66
2022/10/30 10:24:00;;;;;;;12.40;3.53;;;19.90;1.00;;;;;;7358723;19;20402;-66
2022/10/30 10:26:48;;;;;;;10.15;3.85;;;20.00;1.00;;;;;;7358008;19;20011;-66
2022/10/30 10:29:35;;;;;;;10.07;3.97;;;20.10;1.00;;;;;;7358305;19;20016;-66
2022/10/30 10:32:31;;;;;;;10.02;3.60;;;20.10;1.00;;;;;;7359994;19;20046;-65
2022/10/30 10:35:20;;;;;;;11.02;3.63;;;20.10;1.00;;;;;;7358011;19;20060;-66
2022/10/30 10:37:53;;;;;;;12.20;3.63;;;20.10;1.00;;;;;;7356709;19;20038;-67
2022/10/30 10:40:38;;;;;;;10.57;3.92;;;20.40;1.00;;;;;;7355868;19;20021;-68
2022/10/30 10:43:20;;;;;;;9.57;3.78;;;20.40;1.00;;;;;;7382874;19;20429;-65
2022/10/30 10:45:57;;;;;;;8.07;3.80;;;20.50;1.00;;;;;;7354219;19;20025;-65
2022/10/30 10:48:53;;;;;;;10.75;3.38;;;20.50;1.00;;;;;;7354935;19;20098;-65
2022/10/30 10:51:26;;;;;;;9.27;3.30;;;20.60;1.00;;;;;;7354885;19;20022;-66
2022/10/30 10:54:01;;;;;;;10.25;3.17;;;20.60;1.00;;;;;;7355413;19;20020;-65
2022/10/30 10:56:34;;;;;;;7.63;3.10;;;20.70;1.00;;;;;;7352013;19;20028;-66
2022/10/30 10:59:16;;;;;;;7.15;3.30;;;20.80;1.00;;;;;;7356816;19;20861;-66
2022/10/30 11:01:52;;;;;;;9.52;3.53;;;20.90;1.00;;;;;;7355625;19;20011;-66
2022/10/30 11:04:32;;;;;;;15.18;3.97;;;21.00;1.00;;;;;;7359645;19;20015;-67
2022/10/30 11:07:14;;;;;;;9.85;3.65;;;21.00;1.00;;;;;;7378960;19;20014;-67
2022/10/30 11:09:44;;;;;;;8.68;3.50;;;21.20;1.00;;;;;;7355215;19;20019;-66
2022/10/30 11:12:14;;;;;;;16.60;3.55;;;21.20;1.00;;;;;;7354138;19;20090;-66
2022/10/30 11:14:46;;;;;;;8.25;3.05;;;21.20;1.00;;;;;;7354326;19;20425;-66
2022/10/30 11:17:23;;;;;;;9.13;3.25;;;21.40;1.00;;;;;;7353783;19;20019;-65
2022/10/30 11:19:59;;;;;;;9.35;3.25;;;21.40;1.00;;;;;;7354440;19;20043;-65
2022/10/30 11:22:34;;;;;;;11.80;3.58;;;21.50;1.00;;;;;;7355607;19;20016;-65
2022/10/30 11:25:21;;;;;;;10.40;3.83;;;21.60;1.00;;;;;;7377694;19;20029;-66
2022/10/30 11:28:05;;;;;;;10.80;4.82;;;21.70;1.00;;;;;;7351915;19;20031;-66
2022/10/30 11:30:37;;;;;;;7.88;3.38;;;21.60;1.00;;;;;;7353793;19;20010;-66
2022/10/30 11:33:24;;;;;;;8.02;3.63;;;21.70;1.00;;;;;;7354213;19;20018;-66
2022/10/30 11:35:54;;;;;;;11.88;4.22;;;21.70;1.00;;;;;;7352128;19;20021;-66
2022/10/30 11:38:28;;;;;;;7.43;3.45;;;21.80;1.00;;;;;;7354024;19;20015;-66
2022/10/30 11:40:58;;;;;;;12.32;3.88;;;21.90;1.00;;;;;;7353774;19;20018;-66
2022/10/30 11:43:28;;;;;;;9.90;3.40;;;22.00;1.00;;;;;;7354234;19;20010;-66
2022/10/30 11:46:00;;;;;;;8.75;3.80;;;22.00;1.00;;;;;;7374778;19;20014;-66
2022/10/30 11:48:34;;;;;;;8.07;4.00;;;22.00;1.00;;;;;;7352882;19;20061;-66
2022/10/30 11:51:05;;;;;;;9.40;3.72;;;22.10;1.00;;;;;;7353271;19;20014;-65
2022/10/30 11:53:38;;;;;;;9.70;4.15;;;22.10;1.00;;;;;;7352628;19;20021;-66
2022/10/30 11:56:16;;;;;;;7.13;3.05;;;22.10;1.00;;;;;;7351991;19;20393;-65
2022/10/30 11:58:51;;;;;;;10.27;4.03;;;22.10;1.00;;;;;;7351631;19;20018;-67
2022/10/30 12:01:28;;;;;;;11.05;3.53;;;21.90;1.00;;;;;;7354284;19;20384;-67
2022/10/30 12:04:13;;;;;;;8.05;3.25;;;21.90;1.00;;;;;;7377518;19;20014;-67
2022/10/30 12:06:43;;;;;;;9.88;3.78;;;21.90;1.00;;;;;;7350698;19;20359;-67
2022/10/30 12:09:16;;;;;;;19.02;4.15;;;21.90;1.00;;;;;;7353164;19;20010;-65
2022/10/30 12:11:46;;;;;;;9.55;4.03;;;21.80;1.00;;;;;;7357836;19;20533;-67
2022/10/30 12:14:22;;;;;;;10.38;3.85;;;21.80;1.00;;;;;;7365865;19;20010;-68
2022/10/30 12:16:58;;;;;;;9.93;3.30;;;21.90;1.00;;;;;;7362750;19;20481;-67
2022/10/30 12:19:29;;;;;;;11.85;3.33;;;21.80;1.00;;;;;;7363544;19;20018;-69
2022/10/30 12:22:00;;;;;;;6.00;3.15;;;21.80;1.00;;;;;;7383606;19;20490;-68
2022/10/30 12:24:33;;;;;;;8.05;3.40;;;21.80;1.00;;;;;;7361181;19;20526;-69
2022/10/30 12:27:06;;;;;;;11.73;3.70;;;21.90;1.00;;;;;;7363756;19;20018;-68
2022/10/30 12:29:45;;;;;;;8.18;3.30;;;21.90;1.00;;;;;;7362369;19;20016;-68
2022/10/30 12:32:43;;;;;;;9.05;3.60;;;22.00;1.00;;;;;;7362739;19;20074;-69
2022/10/30 12:35:37;;;;;;;11.27;3.53;;;22.10;1.00;;;;;;7363182;19;20018;-68
2022/10/30 12:38:12;;;;;;;8.48;3.38;;;22.10;1.00;;;;;;7360974;19;20055;-68
2022/10/30 12:40:48;;;;;;;8.90;3.47;;;22.10;1.00;;;;;;7361336;19;20018;-68
2022/10/30 12:43:22;;;;;;;10.00;2.88;;;22.10;1.00;;;;;;7383544;19;20372;-68
2022/10/30 12:45:54;;;;;;;9.10;3.13;;;22.20;1.00;;;;;;7361557;19;20074;-68
2022/10/30 12:48:36;;;;;;;6.28;3.05;;;22.20;1.00;;;;;;7360693;19;20014;-68
2022/10/30 12:51:17;;;;;;;11.13;3.60;;;22.20;1.00;;;;;;7361610;19;20411;-68
2022/10/30 12:53:59;;;;;;;7.28;3.55;;;22.30;1.00;;;;;;7361842;19;20118;-68
2022/10/30 12:56:33;;;;;;;10.93;4.10;;;22.30;1.00;;;;;;7362719;19;20020;-68
2022/10/30 12:59:21;;;;;;;10.35;2.85;;;22.30;1.00;;;;;;7363982;19;20014;-68
2022/10/30 13:01:57;;;;;;;8.43;3.65;;;22.30;1.00;;;;;;7361770;19;20014;-68
2022/10/30 13:04:35;;;;;;;7.70;3.35;;;22.50;1.00;;;;;;7362176;19;20023;-68
2022/10/30 13:07:10;;;;;;;8.68;3.75;;;22.40;1.00;;;;;;7380570;19;20014;-68
2022/10/30 13:09:45;;;;;;;8.77;4.30;;;22.40;1.00;;;;;;7360579;19;20018;-67
2022/10/30 13:12:19;;;;;;;9.32;4.32;;;22.40;1.00;;;;;;7361209;19;20037;-67